createdAt,value
2019-05-17T00:02:17.334Z,1.72
2019-05-17T00:05:20.360Z,2.05
2019-05-17T00:08:33.897Z,2.40
2019-05-17T00:11:49.237Z,2.92
2019-05-17T00:15:08.394Z,2.72
2019-05-17T00:18:27.571Z,2.83
2019-05-17T00:21:36.972Z,1.57
2019-05-17T00:24:37.025Z,1.55
2019-05-17T00:27:48.711Z,1.65
2019-05-17T00:30:48.685Z,1.80
2019-05-17T00:34:01.193Z,1.80
2019-05-17T00:37:00.651Z,2.08
2019-05-17T00:40:12.391Z,2.00
2019-05-17T00:43:11.341Z,2.05
2019-05-17T00:46:26.558Z,3.33
2019-05-17T00:49:26.435Z,1.75
2019-05-17T00:52:36.595Z,4.35
2019-05-17T00:55:40.391Z,2.40
2019-05-17T00:58:47.866Z,2.55
2019-05-17T01:01:52.873Z,3.42
2019-05-17T01:04:58.478Z,3.83
2019-05-17T01:08:03.559Z,3.72
2019-05-17T01:11:08.647Z,3.40
2019-05-17T01:14:27.816Z,3.25
2019-05-17T01:17:41.611Z,3.33
2019-05-17T01:20:47.574Z,4.00
2019-05-17T01:23:52.808Z,3.77
2019-05-17T01:26:58.410Z,4.05
2019-05-17T01:30:06.700Z,4.83
2019-05-17T01:33:11.656Z,2.22
2019-05-17T01:36:19.302Z,1.90
2019-05-17T01:39:26.717Z,2.25
2019-05-17T01:42:31.272Z,2.60
2019-05-17T01:45:36.877Z,2.50
2019-05-17T01:48:43.239Z,1.85
2019-05-17T01:51:48.840Z,2.55
2019-05-17T01:54:52.101Z,1.70
2019-05-17T01:57:58.250Z,2.15
2019-05-17T02:01:04.359Z,2.25
2019-05-17T02:04:09.447Z,1.70
2019-05-17T02:07:17.158Z,2.00
2019-05-17T02:10:16.545Z,2.12
2019-05-17T02:13:07.819Z,1.90
2019-05-17T02:16:02.153Z,2.25
2019-05-17T02:18:57.313Z,2.50
2019-05-17T02:21:49.287Z,3.08
2019-05-17T02:24:42.860Z,4.45
2019-05-17T02:27:40.900Z,3.00
2019-05-17T02:30:24.976Z,3.27
2019-05-17T02:33:19.207Z,3.50
2019-05-17T02:36:14.437Z,3.20
2019-05-17T02:39:06.601Z,3.70
2019-05-17T02:42:02.553Z,3.10
2019-05-17T02:44:53.097Z,4.42
2019-05-17T02:47:45.525Z,3.17
2019-05-17T02:50:38.575Z,4.00
2019-05-17T02:53:33.451Z,3.83
2019-05-17T02:56:27.247Z,3.47
2019-05-17T02:59:23.046Z,4.08
2019-05-17T03:02:13.101Z,3.92
2019-05-17T03:05:06.157Z,3.72
2019-05-17T03:07:58.959Z,3.35
2019-05-17T03:10:48.171Z,4.60
2019-05-17T03:13:43.398Z,7.95
2019-05-17T03:16:34.282Z,8.73
2019-05-17T03:19:27.336Z,3.15
2019-05-17T03:25:39.817Z,4.15
2019-05-17T03:28:33.803Z,7.05
2019-05-17T03:31:44.600Z,3.55
2019-05-17T03:34:36.402Z,3.83
2019-05-17T03:37:29.908Z,3.92
2019-05-17T03:40:46.388Z,3.52
2019-05-17T03:43:13.829Z,3.75
2019-05-17T03:46:05.298Z,3.70
2019-05-17T03:49:07.049Z,3.37
2019-05-17T03:52:02.830Z,4.17
2019-05-17T03:54:54.445Z,4.55
2019-05-17T03:57:48.011Z,3.83
2019-05-17T04:00:42.811Z,3.77
2019-05-17T04:03:36.425Z,3.83
2019-05-17T04:06:32.646Z,5.62
2019-05-17T04:09:18.953Z,5.15
2019-05-17T04:12:13.568Z,3.12
2019-05-17T04:15:05.325Z,4.72
2019-05-17T04:17:58.641Z,3.45
2019-05-17T04:20:52.904Z,4.85
2019-05-17T04:23:45.778Z,7.83
2019-05-17T04:26:38.823Z,4.33
2019-05-17T04:29:33.168Z,7.33
2019-05-17T04:32:25.195Z,6.03
2019-05-17T04:35:17.995Z,7.87
2019-05-17T04:38:12.782Z,5.80
2019-05-17T04:41:04.360Z,4.15
2019-05-17T04:44:05.100Z,4.33
2019-05-17T04:46:58.413Z,4.97
2019-05-17T04:49:47.913Z,5.47
2019-05-17T04:52:37.167Z,4.55
2019-05-17T04:55:26.570Z,3.65
2019-05-17T04:58:23.034Z,3.90
2019-05-17T05:01:13.230Z,3.95
2019-05-17T05:04:05.741Z,3.10
2019-05-17T05:06:58.797Z,3.60
2019-05-17T05:09:52.446Z,3.00
2019-05-17T05:12:47.464Z,3.75
2019-05-17T05:15:47.944Z,4.22
2019-05-17T05:18:42.130Z,3.92
2019-05-17T05:21:35.082Z,4.55
2019-05-17T05:24:28.138Z,4.12
2019-05-17T05:27:22.471Z,4.70
2019-05-17T05:30:15.528Z,4.47
2019-05-17T05:33:08.584Z,4.17
2019-05-17T05:36:02.278Z,4.37
2019-05-17T05:38:51.649Z,4.33
2019-05-17T05:42:06.919Z,7.67
2019-05-17T05:44:52.241Z,4.90
2019-05-17T05:47:44.872Z,4.55
2019-05-17T05:50:37.950Z,4.65
2019-05-17T05:53:32.537Z,4.83
2019-05-17T05:56:24.042Z,8.88
2019-05-17T05:59:17.100Z,5.25
2019-05-17T06:02:12.373Z,4.67
2019-05-17T06:05:03.977Z,4.87
2019-05-17T06:07:57.035Z,4.55
2019-05-17T06:10:52.904Z,4.83
2019-05-17T06:13:43.400Z,4.62
2019-05-17T06:16:36.458Z,5.03
2019-05-17T06:19:31.516Z,5.33
2019-05-17T06:22:23.594Z,9.20
2019-05-17T06:25:15.607Z,6.45
2019-05-17T06:28:11.093Z,6.03
2019-05-17T06:31:02.861Z,5.58
2019-05-17T06:33:55.305Z,6.83
2019-05-17T06:36:49.130Z,6.78
2019-05-17T06:39:42.058Z,6.37
2019-05-17T06:42:40.957Z,6.70
2019-05-17T06:45:29.064Z,6.65
2019-05-17T06:48:22.685Z,8.00
2019-05-17T06:51:11.895Z,7.05
2019-05-17T06:54:04.651Z,7.53
2019-05-17T06:56:57.451Z,6.72
2019-05-17T06:59:50.507Z,7.00
2019-05-17T07:02:43.567Z,7.50
2019-05-17T07:05:40.393Z,7.12
2019-05-17T07:08:31.722Z,7.97
2019-05-17T07:11:24.781Z,6.75
2019-05-17T07:14:20.063Z,6.65
2019-05-17T07:17:12.429Z,6.65
2019-05-17T07:20:05.482Z,9.83
2019-05-17T07:23:00.382Z,7.42
2019-05-17T07:25:50.174Z,6.87
2019-05-17T07:28:41.070Z,10.72
2019-05-17T07:31:34.125Z,6.78
2019-05-17T07:34:30.749Z,6.87
2019-05-17T07:37:21.256Z,9.85
2019-05-17T07:40:14.058Z,7.10
2019-05-17T07:43:11.741Z,6.60
2019-05-17T07:46:00.586Z,6.45
2019-05-17T07:48:52.970Z,7.10
2019-05-17T07:51:46.026Z,8.25
2019-05-17T07:54:40.018Z,7.08
2019-05-17T07:57:33.418Z,7.05
2019-05-17T08:00:26.474Z,11.15
2019-05-17T08:03:20.976Z,6.20
2019-05-17T08:06:12.332Z,9.03
2019-05-17T08:09:06.412Z,6.37
2019-05-17T08:11:59.843Z,6.85
2019-05-17T08:14:52.779Z,6.95
2019-05-17T08:17:45.833Z,5.80
2019-05-17T08:20:40.063Z,7.85
2019-05-17T08:23:26.832Z,6.62
2019-05-17T08:26:21.172Z,7.80
2019-05-17T08:29:14.222Z,9.23
2019-05-17T08:32:03.612Z,8.28
2019-05-17T08:35:00.142Z,6.50
2019-05-17T08:37:50.577Z,6.70
2019-05-17T08:40:40.609Z,7.80
2019-05-17T08:43:39.522Z,7.08
2019-05-17T08:46:22.056Z,6.70
2019-05-17T08:49:14.863Z,6.95
2019-05-17T08:52:09.786Z,9.15
2019-05-17T08:55:00.728Z,11.33
2019-05-17T08:57:53.774Z,8.90
2019-05-17T09:00:46.832Z,7.67
2019-05-17T09:03:41.194Z,6.37
2019-05-17T09:06:32.939Z,7.28
2019-05-17T09:09:23.689Z,5.90
2019-05-17T09:12:16.493Z,6.35
2019-05-17T09:15:10.047Z,6.03
2019-05-17T09:18:03.125Z,5.60
2019-05-17T09:20:56.170Z,5.45
2019-05-17T09:23:50.375Z,10.78
2019-05-17T09:26:42.283Z,6.53
2019-05-17T09:29:35.340Z,5.85
2019-05-17T09:32:29.567Z,6.05
2019-05-17T09:35:21.015Z,6.12
2019-05-17T09:38:13.740Z,10.50
2019-05-17T09:41:09.206Z,6.22
2019-05-17T09:44:11.784Z,8.78
2019-05-17T09:46:52.905Z,8.30
2019-05-17T09:49:46.729Z,7.45
2019-05-17T09:52:40.983Z,9.33
2019-05-17T09:55:35.144Z,6.00
2019-05-17T09:58:24.276Z,8.68
2019-05-17T10:01:19.508Z,6.45
2019-05-17T10:04:13.454Z,10.48
2019-05-17T10:06:59.688Z,7.42
2019-05-17T10:09:52.748Z,7.60
2019-05-17T10:12:45.546Z,6.17
2019-05-17T10:15:40.796Z,7.17
2019-05-17T10:18:32.169Z,6.70
2019-05-17T10:21:25.887Z,6.75
2019-05-17T10:24:21.238Z,6.70
2019-05-17T10:27:14.694Z,7.25
2019-05-17T10:30:06.441Z,6.33
2019-05-17T10:33:09.575Z,5.42
2019-05-17T10:36:00.679Z,7.45
2019-05-17T10:38:50.249Z,7.47
2019-05-17T10:41:42.508Z,5.87
2019-05-17T10:44:44.318Z,7.87
2019-05-17T10:47:30.090Z,5.55
2019-05-17T10:50:22.185Z,7.50
2019-05-17T10:53:14.985Z,4.95
2019-05-17T10:56:10.031Z,5.45
2019-05-17T10:59:01.379Z,5.45
2019-05-17T11:01:54.407Z,5.70
2019-05-17T11:04:47.466Z,6.67
2019-05-17T11:07:40.777Z,4.17
2019-05-17T11:10:33.582Z,9.13
2019-05-17T11:13:26.633Z,7.87
2019-05-17T11:16:19.690Z,7.10
2019-05-17T11:19:08.964Z,6.78
2019-05-17T11:22:01.714Z,4.12
2019-05-17T11:28:01.648Z,3.00
2019-05-17T11:30:55.720Z,3.62
2019-05-17T11:33:49.550Z,6.70
2019-05-17T11:36:42.603Z,3.30
2019-05-17T11:39:35.914Z,4.00
2019-05-17T11:42:28.969Z,2.98
2019-05-17T11:45:28.125Z,8.20
2019-05-17T11:48:15.848Z,3.83
2019-05-17T11:51:08.913Z,5.75
2019-05-17T11:54:01.960Z,7.10
2019-05-17T11:56:54.761Z,3.90
2019-05-17T11:59:47.830Z,3.30
2019-05-17T12:02:41.134Z,7.65
2019-05-17T12:05:34.185Z,3.20
2019-05-17T12:08:28.523Z,4.05
2019-05-17T12:11:21.831Z,3.00
2019-05-17T12:14:14.639Z,4.33
2019-05-17T12:17:07.436Z,3.95
2019-05-17T12:20:09.708Z,3.12
2019-05-17T12:23:03.021Z,5.90
2019-05-17T12:25:56.080Z,3.33
2019-05-17T12:28:49.130Z,4.22
2019-05-17T12:31:42.187Z,3.22
2019-05-17T12:34:35.240Z,2.45
2019-05-17T12:37:28.300Z,3.58
2019-05-17T12:40:21.351Z,2.22
2019-05-17T12:43:14.153Z,2.83
2019-05-17T12:46:07.209Z,2.87
2019-05-17T12:48:57.423Z,3.67
2019-05-17T12:51:50.768Z,1.90
2019-05-17T12:54:43.818Z,2.90
2019-05-17T12:57:36.620Z,2.58
2019-05-17T13:00:29.675Z,3.52
2019-05-17T13:03:23.753Z,2.90
2019-05-17T13:06:16.569Z,3.72
2019-05-17T13:09:09.358Z,2.33
2019-05-17T13:12:03.432Z,4.40
2019-05-17T13:14:57.004Z,4.75
2019-05-17T13:17:50.315Z,4.53
2019-05-17T13:20:44.392Z,2.20
2019-05-17T13:23:37.451Z,1.72
2019-05-17T13:26:30.763Z,2.85
2019-05-17T13:29:19.723Z,3.72
2019-05-17T13:32:12.778Z,3.25
2019-05-17T13:35:05.574Z,1.60
2019-05-17T13:37:59.910Z,2.10
2019-05-17T13:40:52.978Z,1.50
2019-05-17T13:43:47.058Z,1.80
2019-05-17T13:46:35.496Z,1.87
2019-05-17T13:49:28.811Z,1.50
2019-05-17T13:52:21.870Z,2.02
2019-05-17T13:55:14.920Z,1.70
2019-05-17T13:58:07.722Z,2.37
2019-05-17T14:01:01.049Z,2.65
2019-05-17T14:03:53.833Z,1.70
2019-05-17T14:06:46.635Z,1.62
2019-05-17T14:09:39.434Z,2.30
2019-05-17T14:12:32.488Z,2.72
2019-05-17T14:15:25.549Z,1.60
2019-05-17T14:18:18.602Z,1.65
2019-05-17T14:21:11.399Z,3.33
2019-05-17T14:24:04.465Z,2.50
2019-05-17T14:26:57.510Z,1.87
2019-05-17T14:29:51.084Z,1.95
2019-05-17T14:32:43.886Z,1.62
2019-05-17T14:35:36.944Z,2.80
2019-05-17T14:38:29.996Z,2.30
2019-05-17T14:41:23.053Z,1.55
2019-05-17T14:44:16.617Z,2.37
2019-05-17T14:47:09.672Z,3.20
2019-05-17T14:50:59.565Z,1.30
2019-05-17T14:53:52.718Z,1.82
2019-05-17T14:56:45.417Z,2.45
2019-05-17T14:59:38.729Z,2.02
2019-05-17T15:02:31.532Z,1.67
2019-05-17T15:05:24.598Z,1.72
2019-05-17T15:08:17.383Z,2.05
2019-05-17T15:11:10.182Z,3.10
2019-05-17T15:14:04.272Z,1.50
2019-05-17T15:16:57.064Z,1.70
2019-05-17T15:19:51.398Z,2.20
2019-05-17T15:22:43.434Z,2.10
2019-05-17T15:25:36.239Z,2.27
2019-05-17T15:28:29.034Z,1.80
2019-05-17T15:31:22.088Z,1.80
2019-05-17T15:34:14.890Z,1.62
2019-05-17T15:37:08.203Z,1.77
2019-05-17T15:40:01.004Z,2.52
2019-05-17T15:42:54.314Z,2.87
2019-05-17T15:45:43.533Z,1.90
2019-05-17T15:48:37.611Z,2.17
2019-05-17T15:51:30.921Z,1.77
2019-05-17T15:54:23.720Z,1.55
2019-05-17T15:57:16.778Z,2.92
2019-05-17T16:00:10.888Z,1.67
2019-05-17T16:03:03.914Z,2.17
2019-05-17T16:05:56.718Z,1.65
2019-05-17T16:08:49.515Z,2.33
2019-05-17T16:11:42.571Z,2.02
2019-05-17T16:14:35.649Z,1.87
2019-05-17T16:17:29.446Z,1.65
2019-05-17T16:20:22.249Z,1.67
2019-05-17T16:23:15.816Z,1.70
2019-05-17T16:26:08.880Z,2.37
2019-05-17T16:29:01.933Z,1.50
2019-05-17T16:31:57.809Z,1.82
2019-05-17T16:34:50.607Z,1.98
2019-05-17T16:37:43.408Z,2.08
2019-05-17T16:40:36.201Z,2.12
2019-05-17T16:43:29.000Z,2.00
2019-05-17T16:46:22.057Z,2.00
2019-05-17T16:49:15.119Z,2.52
2019-05-17T16:52:07.913Z,2.20
2019-05-17T16:55:01.483Z,2.50
2019-05-17T16:57:54.299Z,1.90
2019-05-17T17:00:48.871Z,1.82
2019-05-17T17:03:44.568Z,2.55
2019-05-17T17:06:35.245Z,1.47
2019-05-17T17:09:28.296Z,1.65
2019-05-17T17:12:21.352Z,1.80
2019-05-17T17:15:14.416Z,2.37
2019-05-17T17:18:07.207Z,1.90
2019-05-17T17:21:00.269Z,1.82
2019-05-17T17:23:53.068Z,2.58
2019-05-17T17:26:45.890Z,2.47
2019-05-17T17:29:38.665Z,2.67
2019-05-17T17:32:31.977Z,2.85
2019-05-17T17:35:24.774Z,1.80
2019-05-17T17:38:17.574Z,2.55
2019-05-17T17:41:06.920Z,2.52
2019-05-17T17:44:07.273Z,2.00
2019-05-17T17:47:00.071Z,1.90
2019-05-17T17:49:52.872Z,2.45
2019-05-17T17:52:45.937Z,1.70
2019-05-17T17:55:39.249Z,2.05
2019-05-17T17:58:28.456Z,2.17
2019-05-17T18:01:16.077Z,1.60
2019-05-17T18:04:08.939Z,2.22
2019-05-17T18:07:03.030Z,1.70
2019-05-17T18:09:56.075Z,1.87
2019-05-17T18:12:49.642Z,2.12
2019-05-17T18:15:42.716Z,2.17
2019-05-17T18:18:35.752Z,1.60
2019-05-17T18:21:28.807Z,1.45
2019-05-17T18:24:22.125Z,2.45
2019-05-17T18:27:15.179Z,1.77
2019-05-17T18:30:07.987Z,1.70
2019-05-17T18:33:01.548Z,1.50
2019-05-17T18:35:54.601Z,1.90
2019-05-17T18:38:47.400Z,1.70
2019-05-17T18:41:40.200Z,1.50
2019-05-17T18:44:33.256Z,2.37
2019-05-17T18:47:26.057Z,1.60
2019-05-17T18:50:19.116Z,1.60
2019-05-17T18:53:16.766Z,1.92
2019-05-17T18:56:04.970Z,1.37
2019-05-17T18:58:51.685Z,1.65
2019-05-17T19:01:46.218Z,1.72
2019-05-17T19:04:39.029Z,1.57
2019-05-17T19:07:33.352Z,1.50
2019-05-17T19:10:22.573Z,1.37
2019-05-17T19:13:15.373Z,1.42
2019-05-17T19:16:08.425Z,2.67
2019-05-17T19:19:01.484Z,2.87
2019-05-17T19:21:54.538Z,2.70
2019-05-17T19:24:47.851Z,1.60
2019-05-17T19:27:40.905Z,2.25
2019-05-17T19:30:33.962Z,2.00
2019-05-17T19:33:27.033Z,2.37
2019-05-17T19:36:20.072Z,1.80
2019-05-17T19:39:13.127Z,1.60
2019-05-17T19:42:05.966Z,2.20
2019-05-17T19:44:59.657Z,1.82
2019-05-17T19:47:52.042Z,1.85
2019-05-17T19:50:44.868Z,2.77
2019-05-17T19:53:38.921Z,1.90
2019-05-17T19:56:32.238Z,2.70
2019-05-17T19:59:25.547Z,1.90
2019-05-17T20:02:18.599Z,2.00
2019-05-17T20:05:11.914Z,1.65
2019-05-17T20:08:04.970Z,1.55
2019-05-17T20:10:58.293Z,3.37
2019-05-17T20:13:51.360Z,3.98
2019-05-17T20:16:44.404Z,1.98
2019-05-17T20:19:38.473Z,1.72
2019-05-17T20:22:31.529Z,2.33
2019-05-17T20:25:25.871Z,3.65
2019-05-17T20:28:15.122Z,3.83
2019-05-17T20:31:09.160Z,2.40
2019-05-17T20:34:01.961Z,2.22
2019-05-17T20:36:55.021Z,3.25
2019-05-17T20:39:47.818Z,2.47
2019-05-17T20:42:37.082Z,5.00
2019-05-17T20:45:33.223Z,3.52
2019-05-17T20:48:25.901Z,3.80
2019-05-17T20:51:16.199Z,3.65
2019-05-17T20:54:09.002Z,3.75
2019-05-17T20:57:01.799Z,2.60
2019-05-17T20:59:54.866Z,3.47
2019-05-17T21:02:47.658Z,2.77
2019-05-17T21:05:40.461Z,2.37
2019-05-17T21:08:45.162Z,4.70
2019-05-17T21:11:26.314Z,6.40
2019-05-17T21:14:19.628Z,6.35
2019-05-17T21:17:12.681Z,6.05
2019-05-17T21:20:02.289Z,5.03
2019-05-17T21:22:55.469Z,2.60
2019-05-17T21:25:48.266Z,2.30
2019-05-17T21:28:42.600Z,2.70
2019-05-17T21:31:36.430Z,2.95
2019-05-17T21:34:29.225Z,4.33
2019-05-17T21:37:22.284Z,7.08
2019-05-17T21:40:15.341Z,4.03
2019-05-17T21:43:08.394Z,6.95
2019-05-17T21:46:04.123Z,3.17
2019-05-17T21:48:51.175Z,2.87
2019-05-17T21:51:44.234Z,3.42
2019-05-17T21:54:37.290Z,4.47
2019-05-17T21:57:30.090Z,7.30
2019-05-17T22:00:22.891Z,3.60
2019-05-17T22:03:15.946Z,7.60
2019-05-17T22:06:10.290Z,7.55
2019-05-17T22:09:03.594Z,2.87
2019-05-17T22:11:56.402Z,6.42
2019-05-17T22:14:49.454Z,3.87
2019-05-17T22:17:42.251Z,2.75
2019-05-17T22:20:35.306Z,2.67
2019-05-17T22:23:27.605Z,2.80
2019-05-17T22:26:16.816Z,3.30
2019-05-17T22:29:09.869Z,3.22
2019-05-17T22:32:02.925Z,4.12
2019-05-17T22:34:55.721Z,6.25
2019-05-17T22:37:49.800Z,4.42
2019-05-17T22:40:42.615Z,7.40
2019-05-17T22:43:27.951Z,3.98
2019-05-17T22:46:34.984Z,6.17
2019-05-17T22:49:14.856Z,7.10
2019-05-17T22:52:07.912Z,8.40
2019-05-17T22:55:00.987Z,7.58
2019-05-17T22:57:54.026Z,8.85
2019-05-17T23:00:46.829Z,5.97
2019-05-17T23:03:39.623Z,3.80
2019-05-17T23:06:33.704Z,3.52
2019-05-17T23:09:26.761Z,6.75
2019-05-17T23:12:19.559Z,7.25
2019-05-17T23:15:12.616Z,8.40
2019-05-17T23:18:06.443Z,6.92
2019-05-17T23:20:59.502Z,7.62
2019-05-17T23:23:52.811Z,8.38
2019-05-17T23:26:45.867Z,8.50
2019-05-17T23:29:41.132Z,7.80
2019-05-17T23:32:31.719Z,3.30
2019-05-17T23:35:25.547Z,3.47
2019-05-17T23:38:19.878Z,3.62
2019-05-17T23:41:12.936Z,3.52
2019-05-17T23:44:05.995Z,3.35
2019-05-17T23:47:07.016Z,3.47
2019-05-17T23:49:52.112Z,3.70
2019-05-17T23:52:44.907Z,6.95
2019-05-17T23:55:37.964Z,3.67
2019-05-17T23:58:31.016Z,3.33
